EWG6PR EDDS-LOWW
Flight info
| Callsign | EWG6PR |
|---|---|
| Flight time | 0h 50m |
| Altitude | 31000 |
| Route | ABTAL4H/07 ABTAL L173 RIXED Y161 RIDAR Z98 MIQ L605 BIBAG Q104 AKIMA DCT MASUR MASUR3W |
| Aircraft | A20N/M-SDE2E3FGHIRWXY/LB1 |
Departure
| Time | 2026-05-04 15:38 |
|---|---|
| Airport | Stuttgart Airport (EDDS) |
Arrival
| Time | 2026-05-04 16:28 |
|---|---|
| Airport | Vienna International Airport (LOWW) |
| Time | Latitude | Longitude | Altitude | Speed | Heading |
|---|---|---|---|---|---|
| 2026-05-04 15:23 | 48.68743 | 9.19396 | 1295 ft | 0 kts | 164° |
| 2026-05-04 15:33 | 48.68710 | 9.19411 | 1295 ft | 8 kts | 164° |
| 2026-05-04 15:34 | 48.68741 | 9.19742 | 1295 ft | 20 kts | 73° |
| 2026-05-04 15:34 | 48.68748 | 9.19953 | 1291 ft | 22 kts | 134° |
| 2026-05-04 15:34 | 48.68692 | 9.19988 | 1290 ft | 0 kts | 166° |
| 2026-05-04 15:35 | 48.68691 | 9.19988 | 1290 ft | 0 kts | 166° |
| 2026-05-04 15:35 | 48.68664 | 9.19998 | 1290 ft | 9 kts | 167° |
| 2026-05-04 15:35 | 48.68604 | 9.20086 | 1287 ft | 18 kts | 102° |
| 2026-05-04 15:36 | 48.68619 | 9.20240 | 1288 ft | 0 kts | 75° |
| 2026-05-04 15:36 | 48.68620 | 9.20241 | 1288 ft | 1 kts | 75° |
| 2026-05-04 15:36 | 48.68639 | 9.20341 | 1284 ft | 27 kts | 73° |
| 2026-05-04 15:37 | 48.68748 | 9.20912 | 1274 ft | 91 kts | 73° |
| 2026-05-04 15:37 | 48.68978 | 9.22126 | 1247 ft | 147 kts | 74° |
| 2026-05-04 15:37 | 48.69305 | 9.23815 | 1313 ft | 181 kts | 71° |
| 2026-05-04 15:37 | 48.69649 | 9.25681 | 1841 ft | 185 kts | 70° |
| 2026-05-04 15:38 | 48.70021 | 9.27552 | 2546 ft | 185 kts | 65° |
| 2026-05-04 15:38 | 48.70448 | 9.29365 | 3441 ft | 183 kts | 70° |
| 2026-05-04 15:38 | 48.70788 | 9.31258 | 4092 ft | 193 kts | 72° |
| 2026-05-04 15:38 | 48.71159 | 9.33317 | 4645 ft | 213 kts | 72° |
| 2026-05-04 15:39 | 48.71585 | 9.35598 | 5147 ft | 237 kts | 74° |
| 2026-05-04 15:39 | 48.72048 | 9.38139 | 5717 ft | 262 kts | 75° |
| 2026-05-04 15:39 | 48.73081 | 9.43711 | 7458 ft | 281 kts | 76° |
| 2026-05-04 15:40 | 48.73612 | 9.46555 | 8486 ft | 286 kts | 76° |
| 2026-05-04 15:40 | 48.74166 | 9.49516 | 9466 ft | 293 kts | 77° |
| 2026-05-04 15:40 | 48.74727 | 9.52513 | 10330 ft | 302 kts | 77° |
| 2026-05-04 15:40 | 48.75319 | 9.55700 | 10763 ft | 326 kts | 76° |
| 2026-05-04 15:41 | 48.75960 | 9.59150 | 11167 ft | 348 kts | 76° |
| 2026-05-04 15:41 | 48.76620 | 9.62689 | 11950 ft | 355 kts | 76° |
| 2026-05-04 15:41 | 48.77301 | 9.66353 | 12860 ft | 360 kts | 76° |
| 2026-05-04 15:41 | 48.77982 | 9.70016 | 13699 ft | 367 kts | 76° |
| 2026-05-04 15:42 | 48.78680 | 9.73791 | 14501 ft | 371 kts | 76° |
| 2026-05-04 15:42 | 48.79379 | 9.77566 | 15269 ft | 376 kts | 76° |
| 2026-05-04 15:42 | 48.80097 | 9.81437 | 16000 ft | 386 kts | 76° |
| 2026-05-04 15:42 | 48.80844 | 9.85481 | 16281 ft | 406 kts | 76° |
| 2026-05-04 15:43 | 48.81610 | 9.89633 | 16906 ft | 413 kts | 76° |
| 2026-05-04 15:43 | 48.82391 | 9.93864 | 17620 ft | 417 kts | 76° |
| 2026-05-04 15:43 | 48.83171 | 9.98104 | 18317 ft | 422 kts | 76° |
| 2026-05-04 15:43 | 48.83924 | 10.02211 | 18903 ft | 426 kts | 76° |
| 2026-05-04 15:44 | 48.84690 | 10.06622 | 19525 ft | 430 kts | 80° |
| 2026-05-04 15:44 | 48.85095 | 10.11137 | 20150 ft | 432 kts | 89° |
| 2026-05-04 15:44 | 48.85070 | 10.15660 | 20757 ft | 434 kts | 97° |
| 2026-05-04 15:44 | 48.84708 | 10.20235 | 21358 ft | 437 kts | 99° |
| 2026-05-04 15:45 | 48.84331 | 10.24807 | 21940 ft | 441 kts | 99° |
| 2026-05-04 15:45 | 48.84081 | 10.27900 | 22326 ft | 444 kts | 99° |
| 2026-05-04 15:45 | 48.83701 | 10.32594 | 22919 ft | 448 kts | 99° |
| 2026-05-04 15:45 | 48.83223 | 10.37307 | 23487 ft | 450 kts | 107° |
| 2026-05-04 15:46 | 48.82168 | 10.41732 | 23963 ft | 448 kts | 120° |
| 2026-05-04 15:46 | 48.80480 | 10.45741 | 24461 ft | 445 kts | 132° |
| 2026-05-04 15:46 | 48.78408 | 10.49156 | 24903 ft | 447 kts | 137° |
| 2026-05-04 15:46 | 48.76246 | 10.52595 | 25364 ft | 450 kts | 136° |
| 2026-05-04 15:47 | 48.74090 | 10.56027 | 25833 ft | 453 kts | 136° |
| 2026-05-04 15:47 | 48.71898 | 10.59519 | 26277 ft | 456 kts | 136° |
| 2026-05-04 15:47 | 48.69729 | 10.62974 | 26686 ft | 459 kts | 136° |
| 2026-05-04 15:47 | 48.67501 | 10.66520 | 27106 ft | 462 kts | 136° |
| 2026-05-04 15:48 | 48.65291 | 10.70034 | 27505 ft | 465 kts | 136° |
| 2026-05-04 15:48 | 48.63037 | 10.73612 | 27886 ft | 468 kts | 136° |
| 2026-05-04 15:48 | 48.59485 | 10.81960 | 28603 ft | 481 kts | 113° |
| 2026-05-04 15:49 | 48.58588 | 10.86815 | 28938 ft | 487 kts | 101° |
| 2026-05-04 15:49 | 48.58280 | 10.91907 | 29272 ft | 491 kts | 94° |
| 2026-05-04 15:49 | 48.58198 | 10.97080 | 29568 ft | 493 kts | 92° |
| 2026-05-04 15:49 | 48.58142 | 11.02295 | 29853 ft | 495 kts | 92° |
| 2026-05-04 15:50 | 48.58058 | 11.07441 | 30098 ft | 496 kts | 93° |
| 2026-05-04 15:50 | 48.57938 | 11.12730 | 30302 ft | 497 kts | 94° |
| 2026-05-04 15:50 | 48.57822 | 11.17932 | 30521 ft | 498 kts | 93° |
| 2026-05-04 15:50 | 48.57733 | 11.23135 | 30792 ft | 497 kts | 93° |
| 2026-05-04 15:51 | 48.57648 | 11.28353 | 30966 ft | 496 kts | 93° |
| 2026-05-04 15:51 | 48.57557 | 11.33566 | 30936 ft | 495 kts | 93° |
| 2026-05-04 15:51 | 48.57358 | 11.43941 | 30947 ft | 494 kts | 93° |
| 2026-05-04 15:52 | 48.57144 | 11.54273 | 30936 ft | 493 kts | 94° |
| 2026-05-04 15:52 | 48.56341 | 11.64558 | 30933 ft | 491 kts | 105° |
| 2026-05-04 15:53 | 48.54857 | 11.74599 | 30931 ft | 491 kts | 104° |
| 2026-05-04 15:53 | 48.53384 | 11.84667 | 30933 ft | 491 kts | 104° |
| 2026-05-04 15:54 | 48.51891 | 11.94801 | 30934 ft | 491 kts | 104° |
| 2026-05-04 15:54 | 48.50400 | 12.04837 | 30934 ft | 491 kts | 104° |
| 2026-05-04 15:55 | 48.48901 | 12.14857 | 30932 ft | 492 kts | 104° |
| 2026-05-04 15:55 | 48.47385 | 12.24927 | 30923 ft | 492 kts | 104° |
| 2026-05-04 15:56 | 48.45861 | 12.34983 | 30922 ft | 492 kts | 104° |
| 2026-05-04 15:56 | 48.44328 | 12.45043 | 30916 ft | 492 kts | 105° |
| 2026-05-04 15:57 | 48.42790 | 12.55067 | 30909 ft | 492 kts | 105° |
| 2026-05-04 15:57 | 48.41219 | 12.65238 | 30908 ft | 492 kts | 105° |
| 2026-05-04 15:58 | 48.39972 | 12.75228 | 30904 ft | 493 kts | 96° |
| 2026-05-04 15:58 | 48.40025 | 12.85653 | 30908 ft | 495 kts | 88° |
| 2026-05-04 15:59 | 48.40345 | 12.95951 | 30906 ft | 495 kts | 88° |
| 2026-05-04 15:59 | 48.40650 | 13.06523 | 30906 ft | 494 kts | 88° |
| 2026-05-04 16:00 | 48.40936 | 13.16762 | 30904 ft | 494 kts | 88° |
| 2026-05-04 16:00 | 48.41214 | 13.27051 | 30903 ft | 495 kts | 88° |
| 2026-05-04 16:01 | 48.41593 | 13.37445 | 30907 ft | 495 kts | 85° |
| 2026-05-04 16:01 | 48.42257 | 13.47762 | 30905 ft | 494 kts | 85° |
| 2026-05-04 16:02 | 48.42894 | 13.58084 | 30907 ft | 495 kts | 85° |
| 2026-05-04 16:03 | 48.43773 | 13.73518 | 30907 ft | 495 kts | 85° |
| 2026-05-04 16:03 | 48.44348 | 13.83926 | 30903 ft | 495 kts | 85° |
| 2026-05-04 16:04 | 48.44910 | 13.94246 | 30901 ft | 496 kts | 85° |
| 2026-05-04 16:04 | 48.45740 | 14.09811 | 30899 ft | 496 kts | 85° |
| 2026-05-04 16:05 | 48.46279 | 14.20160 | 30899 ft | 495 kts | 85° |
| 2026-05-04 16:06 | 48.47069 | 14.35641 | 30903 ft | 495 kts | 85° |
| 2026-05-04 16:06 | 48.47752 | 14.49360 | 29671 ft | 488 kts | 85° |
| 2026-05-04 16:07 | 48.48082 | 14.56114 | 28534 ft | 484 kts | 85° |
| 2026-05-04 16:07 | 48.48797 | 14.71029 | 26418 ft | 467 kts | 86° |
| 2026-05-04 16:08 | 48.49027 | 14.75907 | 25720 ft | 463 kts | 86° |
| 2026-05-04 16:08 | 48.49687 | 14.90166 | 23867 ft | 446 kts | 86° |
| 2026-05-04 16:09 | 48.50103 | 14.99381 | 22663 ft | 433 kts | 86° |
| 2026-05-04 16:09 | 48.50502 | 15.08360 | 21533 ft | 420 kts | 87° |
| 2026-05-04 16:10 | 48.50881 | 15.17043 | 20429 ft | 409 kts | 87° |
| 2026-05-04 16:11 | 48.51422 | 15.29686 | 18797 ft | 396 kts | 87° |
| 2026-05-04 16:11 | 48.51595 | 15.33810 | 18240 ft | 393 kts | 87° |
| 2026-05-04 16:12 | 48.51910 | 15.45919 | 16744 ft | 379 kts | 96° |
| 2026-05-04 16:12 | 48.51232 | 15.57768 | 15446 ft | 373 kts | 96° |
| 2026-05-04 16:13 | 48.50868 | 15.64296 | 14754 ft | 370 kts | 96° |
| 2026-05-04 16:13 | 48.50514 | 15.71917 | 13937 ft | 360 kts | 91° |
| 2026-05-04 16:14 | 48.50764 | 15.79598 | 13064 ft | 365 kts | 88° |
| 2026-05-04 16:14 | 48.51022 | 15.87119 | 12185 ft | 356 kts | 89° |
| 2026-05-04 16:15 | 48.51275 | 15.98298 | 10917 ft | 350 kts | 90° |
| 2026-05-04 16:16 | 48.51418 | 16.05453 | 10088 ft | 327 kts | 90° |
| 2026-05-04 16:16 | 48.51608 | 16.15221 | 8765 ft | 298 kts | 90° |
| 2026-05-04 16:17 | 48.51723 | 16.21640 | 6927 ft | 315 kts | 90° |
| 2026-05-04 16:18 | 48.51894 | 16.31086 | 5697 ft | 281 kts | 90° |
| 2026-05-04 16:18 | 48.51949 | 16.33994 | 5353 ft | 270 kts | 91° |
| 2026-05-04 16:19 | 48.50237 | 16.41568 | 5028 ft | 260 kts | 150° |
| 2026-05-04 16:19 | 48.46842 | 16.43127 | 4996 ft | 238 kts | 167° |
| 2026-05-04 16:20 | 48.42208 | 16.44938 | 5010 ft | 226 kts | 165° |
| 2026-05-04 16:20 | 48.39413 | 16.46136 | 5016 ft | 208 kts | 166° |
| 2026-05-04 16:21 | 48.35214 | 16.47933 | 5006 ft | 207 kts | 165° |
| 2026-05-04 16:22 | 48.32514 | 16.49086 | 4730 ft | 190 kts | 165° |
| 2026-05-04 16:22 | 48.29103 | 16.50540 | 4037 ft | 143 kts | 165° |
| 2026-05-04 16:23 | 48.26605 | 16.51604 | 3537 ft | 118 kts | 165° |
| 2026-05-04 16:24 | 48.23450 | 16.52947 | 2921 ft | 120 kts | 164° |
| 2026-05-04 16:25 | 48.21853 | 16.53627 | 2612 ft | 119 kts | 164° |
| 2026-05-04 16:26 | 48.18701 | 16.54965 | 1994 ft | 117 kts | 164° |
| 2026-05-04 16:26 | 48.16338 | 16.55951 | 1426 ft | 118 kts | 164° |
| 2026-05-04 16:27 | 48.14743 | 16.56610 | 1109 ft | 118 kts | 163° |
| 2026-05-04 16:28 | 48.12400 | 16.57639 | 752 ft | 116 kts | 159° |
| 2026-05-04 16:28 | 48.10721 | 16.58291 | 602 ft | 26 kts | 193° |
| 2026-05-04 16:29 | 48.10799 | 16.58033 | 603 ft | 22 kts | 346° |
| 2026-05-04 16:30 | 48.11132 | 16.57517 | 603 ft | 28 kts | 296° |
| 2026-05-04 16:31 | 48.11312 | 16.56959 | 608 ft | 32 kts | 295° |
| 2026-05-04 16:31 | 48.11605 | 16.56189 | 600 ft | 17 kts | 5° |
| 2026-05-04 16:32 | 48.11684 | 16.56134 | 599 ft | 4 kts | 282° |
| 2026-05-04 16:33 | 48.11757 | 16.55872 | 599 ft | 23 kts | 302° |
| 2026-05-04 16:33 | 48.11915 | 16.55754 | 594 ft | 0 kts | 354° |